createdAt,value
2023-06-07T00:01:55.883Z,73.12
2023-06-07T00:05:01.259Z,73.35
2023-06-07T00:08:05.513Z,73.13
2023-06-07T00:11:10.217Z,73.35
2023-06-07T00:14:13.742Z,72.68
2023-06-07T00:17:17.411Z,72.72
2023-06-07T00:20:22.590Z,73.17
2023-06-07T00:23:30.070Z,73.15
2023-06-07T00:26:33.962Z,73.22
2023-06-07T00:29:38.263Z,72.70
2023-06-07T00:32:43.260Z,72.42
2023-06-07T00:35:48.523Z,72.32
2023-06-07T00:38:52.770Z,71.91
2023-06-07T00:41:57.939Z,72.91
2023-06-07T00:45:01.579Z,72.29
2023-06-07T00:48:06.365Z,72.89
2023-06-07T00:51:12.413Z,72.43
2023-06-07T00:54:19.112Z,71.34
2023-06-07T00:57:23.382Z,72.67
2023-06-07T01:00:27.572Z,73.10
2023-06-07T01:03:32.886Z,73.45
2023-06-07T01:06:39.308Z,74.00
2023-06-07T01:09:42.864Z,74.89
2023-06-07T01:12:49.061Z,74.66
2023-06-07T01:15:53.969Z,72.86
2023-06-07T01:19:04.746Z,74.44
2023-06-07T01:22:11.991Z,74.09
2023-06-07T01:25:17.182Z,74.73
2023-06-07T01:28:21.262Z,74.69
2023-06-07T01:31:27.813Z,74.76
2023-06-07T01:34:32.225Z,75.39
2023-06-07T01:37:37.178Z,75.43
2023-06-07T01:40:43.226Z,75.78
2023-06-07T01:43:49.837Z,75.20
2023-06-07T01:46:53.496Z,75.32
2023-06-07T01:50:01.162Z,74.75
2023-06-07T01:53:05.123Z,74.32
2023-06-07T01:56:18.703Z,75.47
2023-06-07T01:59:30.999Z,75.76
2023-06-07T02:02:42.968Z,74.97
2023-06-07T02:05:50.735Z,74.89
2023-06-07T02:08:57.188Z,75.82
2023-06-07T02:12:07.397Z,75.64
2023-06-07T02:15:11.919Z,75.45
2023-06-07T02:18:18.228Z,75.78
2023-06-07T02:21:22.121Z,76.18
2023-06-07T02:24:26.809Z,76.07
2023-06-07T02:27:31.833Z,75.58
2023-06-07T02:30:36.961Z,75.26
2023-06-07T02:33:40.436Z,75.25
2023-06-07T02:36:44.678Z,74.78
2023-06-07T02:39:48.166Z,74.92
2023-06-07T02:42:53.695Z,75.13
2023-06-07T02:45:57.418Z,75.28
2023-06-07T02:49:01.329Z,75.72
2023-06-07T02:52:07.760Z,75.34
2023-06-07T02:55:11.836Z,75.44
2023-06-07T02:58:16.871Z,74.21
2023-06-07T03:01:20.744Z,75.16
2023-06-07T03:04:29.875Z,75.84
2023-06-07T03:07:37.098Z,76.26
2023-06-07T03:10:46.754Z,76.25
2023-06-07T03:13:58.534Z,76.21
2023-06-07T03:17:10.347Z,76.32
2023-06-07T03:20:15.356Z,76.86
2023-06-07T03:23:20.500Z,76.60
2023-06-07T03:26:26.932Z,76.44
2023-06-07T03:29:35.355Z,75.38
2023-06-07T03:32:39.586Z,75.10
2023-06-07T03:35:45.615Z,75.29
2023-06-07T03:38:54.843Z,74.53
2023-06-07T03:41:58.937Z,74.73
2023-06-07T03:45:06.106Z,75.24
2023-06-07T03:48:10.006Z,76.41
2023-06-07T03:51:14.485Z,76.87
2023-06-07T03:54:19.480Z,76.87
2023-06-07T03:57:23.181Z,76.74
2023-06-07T04:00:29.138Z,76.94
2023-06-07T04:03:34.258Z,76.56
2023-06-07T04:06:40.945Z,76.11
2023-06-07T04:09:45.927Z,76.65
2023-06-07T04:12:52.006Z,76.21
2023-06-07T04:15:57.201Z,75.59
2023-06-07T04:19:02.297Z,76.40
2023-06-07T04:22:09.404Z,75.37
2023-06-07T04:25:12.940Z,75.28
2023-06-07T04:28:16.751Z,75.13
2023-06-07T04:31:23.946Z,75.18
2023-06-07T04:34:29.457Z,74.77
2023-06-07T04:37:33.977Z,75.88
2023-06-07T04:40:42.452Z,75.53
2023-06-07T04:43:50.047Z,75.25
2023-06-07T04:47:07.996Z,73.98
2023-06-07T04:50:14.915Z,73.85
2023-06-07T04:53:21.046Z,72.67
2023-06-07T04:56:26.984Z,72.57
2023-06-07T04:59:35.934Z,72.63
2023-06-07T05:02:47.603Z,73.09
2023-06-07T05:05:56.669Z,72.65
2023-06-07T05:09:00.444Z,71.73
2023-06-07T05:12:05.333Z,70.82
2023-06-07T05:15:10.646Z,70.48
2023-06-07T05:18:21.416Z,70.95
2023-06-07T05:21:27.928Z,70.97
2023-06-07T05:24:32.051Z,69.96
2023-06-07T05:27:36.233Z,70.25
2023-06-07T05:30:40.377Z,69.66
2023-06-07T05:33:46.204Z,70.03
2023-06-07T05:36:52.674Z,68.14
2023-06-07T05:39:56.716Z,68.12
2023-06-07T05:43:00.364Z,69.12
2023-06-07T05:46:03.956Z,67.08
2023-06-07T05:49:08.858Z,66.49
2023-06-07T05:52:12.774Z,65.34
2023-06-07T05:55:17.739Z,65.31
2023-06-07T05:58:21.296Z,66.05
2023-06-07T06:01:25.136Z,63.23
2023-06-07T06:04:30.556Z,63.06
2023-06-07T06:07:34.255Z,63.76
2023-06-07T06:10:37.781Z,61.45
2023-06-07T06:13:41.525Z,61.23
2023-06-07T06:16:45.460Z,62.84
2023-06-07T06:19:50.794Z,62.80
2023-06-07T06:22:54.534Z,61.90
2023-06-07T06:25:58.001Z,61.87
2023-06-07T06:29:02.082Z,62.54
2023-06-07T06:32:06.572Z,61.67
2023-06-07T06:35:12.358Z,60.68
2023-06-07T06:38:16.368Z,59.59
2023-06-07T06:41:20.593Z,59.59
2023-06-07T06:44:24.348Z,58.77
2023-06-07T06:47:28.589Z,58.97
2023-06-07T06:50:34.439Z,58.92
2023-06-07T06:53:38.582Z,59.48
2023-06-07T06:56:42.631Z,59.31
2023-06-07T06:59:50.467Z,59.04
2023-06-07T07:02:54.173Z,57.22
2023-06-07T07:05:59.493Z,57.41
2023-06-07T07:09:02.952Z,58.45
2023-06-07T07:12:08.106Z,56.85
2023-06-07T07:15:11.993Z,56.15
2023-06-07T07:18:15.775Z,57.90
2023-06-07T07:21:20.673Z,56.23
2023-06-07T07:24:24.069Z,55.49
2023-06-07T07:27:27.458Z,54.69
2023-06-07T07:30:31.160Z,54.41
2023-06-07T07:33:34.931Z,54.51
2023-06-07T07:36:41.090Z,54.82
2023-06-07T07:39:44.668Z,53.61
2023-06-07T07:42:48.442Z,55.20
2023-06-07T07:45:52.265Z,52.24
2023-06-07T07:48:55.946Z,52.93
2023-06-07T07:52:01.226Z,53.32
2023-06-07T07:55:05.565Z,52.22
2023-06-07T07:58:09.247Z,50.83
2023-06-07T08:01:13.052Z,51.74
2023-06-07T08:04:17.057Z,51.62
2023-06-07T08:07:24.831Z,50.08
2023-06-07T08:10:28.276Z,48.95
2023-06-07T08:13:31.786Z,49.00
2023-06-07T08:16:35.981Z,48.18
2023-06-07T08:19:39.845Z,46.17
2023-06-07T08:22:49.298Z,46.99
2023-06-07T08:25:52.906Z,48.62
2023-06-07T08:28:56.467Z,48.23
2023-06-07T08:32:03.524Z,48.09
2023-06-07T08:35:09.242Z,46.86
2023-06-07T08:38:18.592Z,46.12
2023-06-07T08:41:23.175Z,46.88
2023-06-07T08:44:30.256Z,46.09
2023-06-07T08:47:38.587Z,48.23
2023-06-07T08:50:54.700Z,45.73
2023-06-07T08:54:05.164Z,46.35
2023-06-07T08:57:11.537Z,44.31
2023-06-07T09:00:17.990Z,44.74
2023-06-07T09:03:24.551Z,42.00
2023-06-07T09:06:29.625Z,43.85
2023-06-07T09:09:35.872Z,43.50
2023-06-07T09:12:39.543Z,42.55
2023-06-07T09:15:51.590Z,43.52
2023-06-07T09:18:56.868Z,44.96
2023-06-07T09:22:01.186Z,43.30
2023-06-07T09:25:13.256Z,44.00
2023-06-07T09:28:25.239Z,40.65
2023-06-07T09:31:34.762Z,43.27
2023-06-07T09:34:39.600Z,42.89
2023-06-07T09:37:46.955Z,42.83
2023-06-07T09:40:56.037Z,43.70
2023-06-07T09:44:03.447Z,43.70
2023-06-07T09:47:10.393Z,43.69
2023-06-07T09:50:16.253Z,43.01
2023-06-07T09:53:24.368Z,42.36
2023-06-07T09:56:31.483Z,43.48
2023-06-07T09:59:35.482Z,42.31
2023-06-07T10:02:43.693Z,43.01
2023-06-07T10:05:49.962Z,43.93
2023-06-07T10:08:54.398Z,43.37
2023-06-07T10:12:01.429Z,43.69
2023-06-07T10:15:06.255Z,42.87
2023-06-07T10:18:19.095Z,42.02
2023-06-07T10:21:28.969Z,40.43
2023-06-07T10:24:42.900Z,40.54
2023-06-07T10:27:55.570Z,40.88
2023-06-07T10:31:06.857Z,39.10
2023-06-07T10:34:15.343Z,40.05
2023-06-07T10:37:20.301Z,38.50
2023-06-07T10:40:27.384Z,40.02
2023-06-07T10:43:35.237Z,40.48
2023-06-07T10:46:48.067Z,39.47
2023-06-07T10:49:53.963Z,38.69
2023-06-07T10:52:59.539Z,41.43
2023-06-07T10:56:32.522Z,41.65
2023-06-07T10:59:38.881Z,40.95
2023-06-07T11:02:45.649Z,39.35
2023-06-07T11:06:12.953Z,41.21
2023-06-07T11:09:30.924Z,40.84
2023-06-07T11:12:58.213Z,38.82
2023-06-07T11:16:34.397Z,36.41
2023-06-07T11:20:07.332Z,35.61
2023-06-07T11:23:28.953Z,35.08
2023-06-07T11:26:37.789Z,34.74
2023-06-07T11:29:45.097Z,35.90
2023-06-07T11:32:51.731Z,37.88
2023-06-07T11:35:59.056Z,38.47
2023-06-07T11:39:10.558Z,40.04
2023-06-07T11:42:16.593Z,38.98
2023-06-07T11:45:20.751Z,40.59
2023-06-07T11:48:32.435Z,40.64
2023-06-07T11:51:39.939Z,40.00
2023-06-07T11:54:48.632Z,38.75
2023-06-07T11:57:57.132Z,40.36
2023-06-07T12:01:06.011Z,40.53
2023-06-07T12:04:10.957Z,41.47
2023-06-07T12:07:23.820Z,39.14
2023-06-07T12:10:28.981Z,40.11
2023-06-07T12:13:38.483Z,39.41
2023-06-07T12:16:42.518Z,39.99
2023-06-07T12:19:46.749Z,42.05
2023-06-07T12:22:52.233Z,43.16
2023-06-07T12:26:07.715Z,41.67
2023-06-07T12:29:11.125Z,43.54
2023-06-07T12:32:14.548Z,43.35
2023-06-07T12:35:18.031Z,43.50
2023-06-07T12:38:25.723Z,44.56
2023-06-07T12:41:32.046Z,44.25
2023-06-07T12:44:36.438Z,43.85
2023-06-07T12:47:40.273Z,46.20
2023-06-07T12:50:43.923Z,46.74
2023-06-07T12:53:48.981Z,48.22
2023-06-07T12:56:52.466Z,48.13
2023-06-07T12:59:55.903Z,48.98
2023-06-07T13:02:59.458Z,48.63
2023-06-07T13:06:03.846Z,48.19
2023-06-07T13:09:10.706Z,47.75
2023-06-07T13:12:15.875Z,46.68
2023-06-07T13:15:20.227Z,47.31
2023-06-07T13:18:27.255Z,47.60
2023-06-07T13:21:31.224Z,48.18
2023-06-07T13:24:36.294Z,48.51
2023-06-07T13:27:39.794Z,47.50
2023-06-07T13:30:43.219Z,49.12
2023-06-07T13:33:46.970Z,47.65
2023-06-07T13:36:51.012Z,46.72
2023-06-07T13:39:55.951Z,45.68
2023-06-07T13:42:59.341Z,43.92
2023-06-07T13:46:03.938Z,41.02
2023-06-07T13:49:08.418Z,39.48
2023-06-07T13:52:11.901Z,38.43
2023-06-07T13:55:16.921Z,37.68
2023-06-07T13:58:21.119Z,36.33
2023-06-07T14:01:25.313Z,35.59
2023-06-07T14:04:29.821Z,35.98
2023-06-07T14:07:33.449Z,35.07
2023-06-07T14:10:38.383Z,39.75
2023-06-07T14:13:43.660Z,37.67
2023-06-07T14:16:47.425Z,41.99
2023-06-07T14:19:50.808Z,44.73
2023-06-07T14:22:54.453Z,56.82
2023-06-07T14:25:59.789Z,56.24
2023-06-07T14:29:03.565Z,66.04
2023-06-07T14:32:07.990Z,65.01
2023-06-07T14:35:11.907Z,67.66
2023-06-07T14:38:15.654Z,65.05
2023-06-07T14:41:20.689Z,60.62
2023-06-07T14:44:25.582Z,58.66
2023-06-07T14:47:29.158Z,60.89
2023-06-07T14:50:33.295Z,64.00
2023-06-07T14:53:37.856Z,64.42
2023-06-07T14:56:43.137Z,64.21
2023-06-07T14:59:46.907Z,66.71
2023-06-07T15:02:51.224Z,67.95
2023-06-07T15:05:55.026Z,67.27
2023-06-07T15:08:58.677Z,66.96
2023-06-07T15:12:06.888Z,62.22
2023-06-07T15:15:11.391Z,64.27
2023-06-07T15:18:17.085Z,72.54
2023-06-07T15:21:20.796Z,73.38
2023-06-07T15:24:25.006Z,74.68
2023-06-07T15:27:29.955Z,72.94
2023-06-07T15:30:33.693Z,69.90
2023-06-07T15:33:37.198Z,75.12
2023-06-07T15:36:40.666Z,71.38
2023-06-07T15:39:47.460Z,69.12
2023-06-07T15:42:52.376Z,70.67
2023-06-07T15:45:55.965Z,70.46
2023-06-07T15:48:59.452Z,70.16
2023-06-07T15:52:02.937Z,69.85
2023-06-07T15:55:07.656Z,71.76
2023-06-07T15:58:13.248Z,71.25
2023-06-07T16:01:16.877Z,68.93
2023-06-07T16:04:20.662Z,69.02
2023-06-07T16:07:24.321Z,67.46
2023-06-07T16:10:27.974Z,64.99
2023-06-07T16:13:33.112Z,69.28
2023-06-07T16:16:36.979Z,69.28
2023-06-07T16:19:40.736Z,70.53
2023-06-07T16:22:44.827Z,73.71
2023-06-07T16:25:49.949Z,71.62
2023-06-07T16:28:55.075Z,69.53
2023-06-07T16:31:58.924Z,71.74
2023-06-07T16:35:03.260Z,70.02
2023-06-07T16:38:07.023Z,69.99
2023-06-07T16:41:11.075Z,71.79
2023-06-07T16:44:18.873Z,71.91
2023-06-07T16:47:22.427Z,70.92
2023-06-07T16:50:26.238Z,68.73
2023-06-07T16:53:29.754Z,67.22
2023-06-07T16:56:33.473Z,66.07
2023-06-07T16:59:38.520Z,66.04
2023-06-07T17:02:47.409Z,67.33
2023-06-07T17:05:54.242Z,71.06
2023-06-07T17:08:58.236Z,75.71
2023-06-07T17:12:01.702Z,74.28
2023-06-07T17:15:08.536Z,74.32
2023-06-07T17:18:14.036Z,73.26
2023-06-07T17:21:18.437Z,73.87
2023-06-07T17:24:22.335Z,73.56
2023-06-07T17:27:26.303Z,74.50
2023-06-07T17:30:32.075Z,75.10
2023-06-07T17:33:36.057Z,76.36
2023-06-07T17:36:43.603Z,76.37
2023-06-07T17:39:47.616Z,75.61
2023-06-07T17:42:51.189Z,75.40
2023-06-07T17:45:56.317Z,76.39
2023-06-07T17:48:59.947Z,77.09
2023-06-07T17:52:13.496Z,77.27
2023-06-07T17:55:25.929Z,77.32
2023-06-07T17:58:35.395Z,76.61
2023-06-07T18:01:40.452Z,75.87
2023-06-07T18:04:44.448Z,76.70
2023-06-07T18:07:47.912Z,77.99
2023-06-07T18:10:54.521Z,77.21
2023-06-07T18:13:58.264Z,75.83
2023-06-07T18:17:04.010Z,73.78
2023-06-07T18:20:09.220Z,74.35
2023-06-07T18:23:13.598Z,75.67
2023-06-07T18:26:17.014Z,75.41
2023-06-07T18:29:20.669Z,76.58
2023-06-07T18:32:25.542Z,77.18
2023-06-07T18:35:28.974Z,76.93
2023-06-07T18:38:32.745Z,77.27
2023-06-07T18:41:37.206Z,76.44
2023-06-07T18:44:42.070Z,75.62
2023-06-07T18:47:48.505Z,75.37
2023-06-07T18:50:52.458Z,77.23
2023-06-07T18:53:58.459Z,76.64
2023-06-07T18:57:05.895Z,76.49
2023-06-07T19:00:13.962Z,76.22
2023-06-07T19:03:21.171Z,76.30
2023-06-07T19:06:25.500Z,77.53
2023-06-07T19:09:31.534Z,76.83
2023-06-07T19:12:39.988Z,78.68
2023-06-07T19:15:43.664Z,77.16
2023-06-07T19:18:51.386Z,77.76
2023-06-07T19:22:00.351Z,76.76
2023-06-07T19:25:04.702Z,77.40
2023-06-07T19:28:08.588Z,76.47
2023-06-07T19:31:12.514Z,77.75
2023-06-07T19:34:17.700Z,77.55
2023-06-07T19:37:21.317Z,78.18
2023-06-07T19:40:26.593Z,77.84
2023-06-07T19:43:30.126Z,77.83
2023-06-07T19:46:33.703Z,73.95
2023-06-07T19:49:39.805Z,74.40
2023-06-07T19:52:43.446Z,74.58
2023-06-07T19:55:47.014Z,72.74
2023-06-07T19:58:50.543Z,73.10
2023-06-07T20:01:55.316Z,74.30
2023-06-07T20:05:00.717Z,76.49
2023-06-07T20:08:08.791Z,77.37
2023-06-07T20:11:12.759Z,76.37
2023-06-07T20:14:16.477Z,77.55
2023-06-07T20:17:21.116Z,77.50
2023-06-07T20:20:26.620Z,74.92
2023-06-07T20:23:30.529Z,76.50
2023-06-07T20:26:34.148Z,78.19
2023-06-07T20:29:40.187Z,78.81
2023-06-07T20:32:43.779Z,78.91
2023-06-07T20:35:48.966Z,79.29
2023-06-07T20:38:52.786Z,79.33
2023-06-07T20:41:57.628Z,78.04
2023-06-07T20:45:01.466Z,77.17
2023-06-07T20:48:05.402Z,77.24
2023-06-07T20:51:10.298Z,78.60
2023-06-07T20:54:14.012Z,78.60
2023-06-07T20:57:17.638Z,77.74
2023-06-07T21:00:22.892Z,77.84
2023-06-07T21:03:27.044Z,78.88
2023-06-07T21:06:32.765Z,78.24
2023-06-07T21:09:36.320Z,78.16
2023-06-07T21:12:39.834Z,77.89
2023-06-07T21:15:45.598Z,78.02
2023-06-07T21:18:49.124Z,78.38
2023-06-07T21:21:54.102Z,78.11
2023-06-07T21:24:57.832Z,78.91
2023-06-07T21:28:01.384Z,78.40
2023-06-07T21:31:04.933Z,78.88
2023-06-07T21:34:08.455Z,78.23
2023-06-07T21:37:13.582Z,78.80
2023-06-07T21:40:17.347Z,78.28
2023-06-07T21:43:21.206Z,78.95
2023-06-07T21:46:24.835Z,79.80
2023-06-07T21:49:28.548Z,78.73
2023-06-07T21:52:33.672Z,80.17
2023-06-07T21:55:37.280Z,80.29
2023-06-07T21:58:40.736Z,80.61
2023-06-07T22:01:44.404Z,79.69
2023-06-07T22:04:48.663Z,79.95
2023-06-07T22:07:53.945Z,79.81
2023-06-07T22:10:57.469Z,80.15
2023-06-07T22:14:03.980Z,80.24
2023-06-07T22:17:09.943Z,81.55
2023-06-07T22:20:15.619Z,80.57
2023-06-07T22:23:21.604Z,80.92
2023-06-07T22:26:25.339Z,80.79
2023-06-07T22:29:28.831Z,80.61
2023-06-07T22:32:33.901Z,80.02
2023-06-07T22:35:37.816Z,80.51
2023-06-07T22:38:42.749Z,81.52
2023-06-07T22:41:46.580Z,81.36
2023-06-07T22:44:50.123Z,81.69
2023-06-07T22:48:04.258Z,82.07
2023-06-07T22:51:08.356Z,82.13
2023-06-07T22:54:13.493Z,82.36
2023-06-07T22:57:17.205Z,83.17
2023-06-07T23:00:21.380Z,82.38
2023-06-07T23:03:24.981Z,81.46
2023-06-07T23:06:32.561Z,81.82
2023-06-07T23:09:38.047Z,81.23
2023-06-07T23:12:44.046Z,80.56
2023-06-07T23:15:47.705Z,81.14
2023-06-07T23:18:51.716Z,80.67
2023-06-07T23:21:57.915Z,80.75
2023-06-07T23:25:02.943Z,80.68
2023-06-07T23:28:07.343Z,81.58
2023-06-07T23:31:10.877Z,80.44
2023-06-07T23:34:14.471Z,80.28
2023-06-07T23:37:18.055Z,79.50
2023-06-07T23:40:23.030Z,79.45
2023-06-07T23:43:26.927Z,79.79
2023-06-07T23:46:31.903Z,81.31
2023-06-07T23:49:36.271Z,80.73
2023-06-07T23:52:42.892Z,81.52
2023-06-07T23:55:47.833Z,80.96
2023-06-07T23:58:51.421Z,80.93
